createdAt,value
2019-05-14T00:02:52.164Z,96848.00
2019-05-14T00:08:22.211Z,96855.00
2019-05-14T00:13:52.194Z,96849.00
2019-05-14T00:19:21.641Z,96850.00
2019-05-14T00:24:52.003Z,96841.00
2019-05-14T00:30:22.124Z,96833.00
2019-05-14T00:35:51.674Z,96837.00
2019-05-14T00:41:21.464Z,96819.00
2019-05-14T00:46:51.651Z,96817.00
2019-05-14T00:52:22.250Z,96818.00
2019-05-14T00:57:52.152Z,96804.00
2019-05-14T01:03:22.123Z,96811.00
2019-05-14T01:08:52.073Z,96813.00
2019-05-14T01:14:21.415Z,96806.00
2019-05-14T01:19:51.332Z,96807.00
2019-05-14T01:25:23.715Z,96803.00
2019-05-14T01:30:52.106Z,96808.00
2019-05-14T01:36:21.671Z,96798.00
2019-05-14T01:41:51.723Z,96788.00
2019-05-14T01:47:21.476Z,96798.00
2019-05-14T01:52:51.990Z,96789.00
2019-05-14T01:58:22.219Z,96782.00
2019-05-14T02:03:51.957Z,96775.00
2019-05-14T02:09:22.061Z,96781.00
2019-05-14T02:14:51.465Z,96759.00
2019-05-14T02:20:21.618Z,96756.00
2019-05-14T02:25:51.859Z,96752.00
2019-05-14T02:31:21.406Z,96748.00
2019-05-14T02:36:50.835Z,96749.00
2019-05-14T02:42:20.293Z,96740.00
2019-05-14T02:47:50.552Z,96744.00
2019-05-14T02:53:20.241Z,96739.00
2019-05-14T02:58:50.083Z,96739.00
2019-05-14T03:04:20.051Z,96746.00
2019-05-14T03:09:50.352Z,96732.00
2019-05-14T03:15:20.295Z,96716.00
2019-05-14T03:20:50.410Z,96712.00
2019-05-14T03:26:20.088Z,96712.00
2019-05-14T03:31:52.586Z,96707.00
2019-05-14T03:37:23.421Z,96707.00
2019-05-14T03:42:52.177Z,96708.00
2019-05-14T03:48:21.584Z,96706.00
2019-05-14T03:54:00.977Z,96708.00
2019-05-14T03:59:22.472Z,96704.00
2019-05-14T04:04:52.381Z,96706.00
2019-05-14T04:10:22.141Z,96697.00
2019-05-14T04:15:55.675Z,96701.00
2019-05-14T04:21:29.513Z,96693.00
2019-05-14T04:27:07.085Z,96695.00
2019-05-14T04:32:32.615Z,96699.00
2019-05-14T04:38:04.911Z,96702.00
2019-05-14T04:43:34.482Z,96703.00
2019-05-14T04:49:04.070Z,96701.00
2019-05-14T04:54:33.636Z,96703.00
2019-05-14T05:00:03.376Z,96707.00
2019-05-14T05:05:33.138Z,96695.00
2019-05-14T05:11:02.619Z,96691.00
2019-05-14T05:16:32.125Z,96685.00
2019-05-14T05:22:01.475Z,96698.00
2019-05-14T05:27:30.771Z,96695.00
2019-05-14T05:33:00.091Z,96689.00
2019-05-14T05:38:29.571Z,96689.00
2019-05-14T05:43:59.124Z,96699.00
2019-05-14T05:49:29.119Z,96698.00
2019-05-14T05:54:58.624Z,96699.00
2019-05-14T06:00:40.457Z,96702.00
2019-05-14T06:06:13.597Z,96696.00
2019-05-14T06:11:41.045Z,96690.00
2019-05-14T06:17:10.443Z,96693.00
2019-05-14T06:22:39.839Z,96683.00
2019-05-14T06:28:09.269Z,96681.00
2019-05-14T06:33:39.359Z,96682.00
2019-05-14T06:39:09.769Z,96679.00
2019-05-14T06:44:39.071Z,96680.00
2019-05-14T06:50:08.768Z,96668.00
2019-05-14T06:55:39.275Z,96667.00
2019-05-14T07:01:09.766Z,96656.00
2019-05-14T07:06:39.319Z,96664.00
2019-05-14T07:12:09.210Z,96650.00
2019-05-14T07:17:38.757Z,96650.00
2019-05-14T07:23:08.374Z,96666.00
2019-05-14T07:28:42.214Z,96652.00
2019-05-14T07:34:09.102Z,96655.00
2019-05-14T07:39:38.714Z,96649.00
2019-05-14T07:45:09.791Z,96648.00
2019-05-14T07:50:39.842Z,96641.00
2019-05-14T07:56:09.696Z,96634.00
2019-05-14T08:01:39.072Z,96631.00
2019-05-14T08:07:08.983Z,96631.00
2019-05-14T08:12:39.284Z,96621.00
2019-05-14T08:18:08.880Z,96621.00
2019-05-14T08:23:39.180Z,96614.00
2019-05-14T08:29:08.807Z,96612.00
2019-05-14T08:34:38.932Z,96614.00
2019-05-14T08:40:09.757Z,96604.00
2019-05-14T08:45:39.146Z,96602.00
2019-05-14T08:51:09.267Z,96606.00
2019-05-14T08:56:39.095Z,96606.00
2019-05-14T09:02:10.635Z,96631.00
2019-05-14T09:07:39.721Z,96635.00
2019-05-14T09:13:09.064Z,96631.00
2019-05-14T09:18:38.841Z,96618.00
2019-05-14T09:24:09.585Z,96614.00
2019-05-14T09:29:39.568Z,96607.00
2019-05-14T09:35:09.930Z,96606.00
2019-05-14T09:40:39.930Z,96594.00
2019-05-14T09:46:09.464Z,96596.00
2019-05-14T09:51:38.922Z,96590.00
2019-05-14T09:57:08.528Z,96580.00
2019-05-14T10:02:39.299Z,96574.00
2019-05-14T10:08:09.142Z,96584.00
2019-05-14T10:13:39.260Z,96568.00
2019-05-14T10:19:08.999Z,96565.00
2019-05-14T10:24:38.854Z,96557.00
2019-05-14T10:30:10.501Z,96548.00
2019-05-14T10:35:40.038Z,96543.00
2019-05-14T10:41:09.512Z,96540.00
2019-05-14T10:46:39.963Z,96557.00
2019-05-14T10:52:09.299Z,96545.00
2019-05-14T10:57:38.736Z,96537.00
2019-05-14T11:03:08.086Z,96532.00
2019-05-14T11:08:38.657Z,96530.00
2019-05-14T11:14:08.902Z,96522.00
2019-05-14T11:19:39.032Z,96522.00
2019-05-14T11:25:09.497Z,96516.00
2019-05-14T11:30:39.269Z,96501.00
2019-05-14T11:36:09.419Z,96500.00
2019-05-14T11:41:39.154Z,96501.00
2019-05-14T11:47:10.303Z,96498.00
2019-05-14T11:52:39.689Z,96475.00
2019-05-14T11:58:09.195Z,96483.00
2019-05-14T12:03:39.595Z,96470.00
2019-05-14T12:09:11.805Z,96447.00
2019-05-14T12:14:40.511Z,96445.00
2019-05-14T12:20:10.584Z,96438.00
2019-05-14T12:25:40.088Z,96433.00
2019-05-14T12:31:09.677Z,96432.00
2019-05-14T12:36:39.097Z,96427.00
2019-05-14T12:42:10.548Z,96426.00
2019-05-14T12:47:40.023Z,96418.00
2019-05-14T12:53:09.419Z,96410.00
2019-05-14T12:58:45.344Z,96410.00
2019-05-14T13:04:10.202Z,96408.00
2019-05-14T13:09:39.610Z,96395.00
2019-05-14T13:15:09.470Z,96390.00
2019-05-14T13:20:39.136Z,96384.00
2019-05-14T13:26:10.458Z,96380.00
2019-05-14T13:31:39.910Z,96360.00
2019-05-14T13:37:10.393Z,96360.00
2019-05-14T13:42:44.723Z,96357.00
2019-05-14T13:48:14.233Z,96360.00
2019-05-14T13:53:43.634Z,96365.00
2019-05-14T13:59:13.174Z,96376.00
2019-05-14T14:04:42.581Z,96378.00
2019-05-14T14:10:14.584Z,96366.00
2019-05-14T14:15:45.962Z,96354.00
2019-05-14T14:21:15.408Z,96348.00
2019-05-14T14:26:44.881Z,96344.00
2019-05-14T14:32:14.735Z,96343.00
2019-05-14T14:37:44.784Z,96334.00
2019-05-14T14:43:15.220Z,96341.00
2019-05-14T14:48:44.755Z,96361.00
2019-05-14T14:54:16.519Z,96359.00
2019-05-14T14:59:49.896Z,96358.00
2019-05-14T15:05:25.939Z,96357.00
2019-05-14T15:10:59.105Z,96363.00
2019-05-14T15:16:29.164Z,96401.00
2019-05-14T15:21:59.150Z,96406.00
2019-05-14T15:27:28.737Z,96384.00
2019-05-14T15:33:04.137Z,96363.00
2019-05-14T15:38:33.613Z,96356.00
2019-05-14T15:44:08.814Z,96346.00
2019-05-14T15:49:38.908Z,96327.00
2019-05-14T15:55:09.933Z,96338.00
2019-05-14T16:00:39.629Z,96363.00
2019-05-14T16:06:09.172Z,96379.00
2019-05-14T16:11:39.322Z,96376.00
2019-05-14T16:17:12.793Z,96377.00
2019-05-14T16:22:42.313Z,96368.00
2019-05-14T16:28:13.673Z,96352.00
2019-05-14T16:33:43.007Z,96326.00
2019-05-14T16:39:12.452Z,96315.00
2019-05-14T16:44:44.051Z,96314.00
2019-05-14T16:50:15.731Z,96308.00
2019-05-14T16:55:46.048Z,96309.00
2019-05-14T17:01:18.997Z,96307.00
2019-05-14T17:06:49.363Z,96314.00
2019-05-14T17:12:22.115Z,96308.00
2019-05-14T17:17:50.237Z,96310.00
2019-05-14T17:23:19.820Z,96308.00
2019-05-14T17:28:49.547Z,96305.00
2019-05-14T17:34:21.926Z,96310.00
2019-05-14T17:39:52.549Z,96323.00
2019-05-14T17:45:22.191Z,96315.00
2019-05-14T17:50:51.786Z,96322.00
2019-05-14T17:56:22.967Z,96321.00
2019-05-14T18:01:58.173Z,96316.00
2019-05-14T18:07:28.582Z,96321.00
2019-05-14T18:12:59.898Z,96323.00
2019-05-14T18:18:29.389Z,96317.00
2019-05-14T18:24:00.290Z,96308.00
2019-05-14T18:29:29.782Z,96306.00
2019-05-14T18:34:59.275Z,96308.00
2019-05-14T18:40:35.143Z,96301.00
2019-05-14T18:46:05.028Z,96308.00
2019-05-14T18:51:36.184Z,96311.00
2019-05-14T18:57:05.846Z,96321.00
2019-05-14T19:02:44.125Z,96317.00
2019-05-14T19:08:13.686Z,96318.00
2019-05-14T19:13:43.427Z,96322.00
2019-05-14T19:19:12.845Z,96325.00
2019-05-14T19:24:42.754Z,96325.00
2019-05-14T19:30:12.449Z,96323.00
2019-05-14T19:35:42.817Z,96327.00
2019-05-14T19:41:13.457Z,96331.00
2019-05-14T19:46:45.593Z,96332.00
2019-05-14T19:52:15.563Z,96335.00
2019-05-14T19:57:45.118Z,96327.00
2019-05-14T20:03:14.569Z,96330.00
2019-05-14T20:08:44.277Z,96329.00
2019-05-14T20:14:13.850Z,96341.00
2019-05-14T20:19:46.474Z,96335.00
2019-05-14T20:25:14.793Z,96329.00
2019-05-14T20:30:49.322Z,96324.00
2019-05-14T20:36:18.725Z,96317.00
2019-05-14T20:41:49.055Z,96314.00
2019-05-14T20:47:21.537Z,96314.00
2019-05-14T20:53:01.559Z,96303.00
2019-05-14T20:58:31.079Z,96311.00
2019-05-14T21:04:00.410Z,96314.00
2019-05-14T21:09:31.715Z,96310.00
2019-05-14T21:15:02.355Z,96298.00
2019-05-14T21:20:32.281Z,96303.00
2019-05-14T21:26:03.311Z,96296.00
2019-05-14T21:31:34.894Z,96305.00
2019-05-14T21:37:10.466Z,96309.00
2019-05-14T21:42:41.954Z,96303.00
2019-05-14T21:48:11.477Z,96308.00
2019-05-14T21:53:42.716Z,96296.00
2019-05-14T21:59:20.296Z,96295.00
2019-05-14T22:04:51.905Z,96286.00
2019-05-14T22:10:21.493Z,96290.00
2019-05-14T22:15:50.973Z,96285.00
2019-05-14T22:21:20.489Z,96274.00
2019-05-14T22:26:49.908Z,96288.00
2019-05-14T22:32:19.625Z,96273.00
2019-05-14T22:37:48.950Z,96274.00
2019-05-14T22:43:18.803Z,96268.00
2019-05-14T22:48:58.192Z,96264.00
2019-05-14T22:54:29.154Z,96262.00
2019-05-14T22:59:58.186Z,96263.00
2019-05-14T23:05:29.010Z,96254.00
2019-05-14T23:10:58.981Z,96250.00
2019-05-14T23:16:34.411Z,96255.00
2019-05-14T23:21:59.703Z,96249.00
2019-05-14T23:27:29.462Z,96248.00
2019-05-14T23:33:05.008Z,96244.00
2019-05-14T23:38:34.504Z,96240.00
2019-05-14T23:44:04.162Z,96232.00
2019-05-14T23:49:33.644Z,96238.00
2019-05-14T23:55:03.176Z,96219.00
